Time;durP1;ratioP1;P1;durP2;ratioP2;P2;SDS_P1;SDS_P2;PMS_P1;PMS_P2;Temp;Humidity;BMP_temperature;BMP_pressure;BME280_temperature;BME280_humidity;BME280_pressure;Samples;Min_cycle;Max_cycle;Signal;HPM_P1;HPM_P2
2022/10/03 00:01:40;;;;;;;10.98;3.08;;;10.30;99.90;;;;;;5093735;28;20500;-47
2022/10/03 00:04:16;;;;;;;10.45;2.13;;;10.20;99.90;;;;;;5093487;28;20036;-43
2022/10/03 00:06:59;;;;;;;12.68;2.00;;;10.30;99.90;;;;;;5091641;28;20475;-45
2022/10/03 00:09:40;;;;;;;13.20;2.25;;;10.20;99.90;;;;;;5092648;28;20369;-47
2022/10/03 00:12:36;;;;;;;15.10;2.08;;;10.10;99.90;;;;;;5092328;28;20040;-47
2022/10/03 00:15:14;;;;;;;9.15;2.15;;;10.30;99.90;;;;;;5093418;28;20032;-46
2022/10/03 00:17:52;;;;;;;10.45;1.70;;;10.20;99.90;;;;;;5093666;28;20487;-48
2022/10/03 00:20:38;;;;;;;10.65;2.00;;;10.30;99.90;;;;;;5093845;28;20043;-46
2022/10/03 00:23:26;;;;;;;13.77;2.13;;;10.20;99.90;;;;;;5093592;28;20479;-46
2022/10/03 00:26:26;;;;;;;11.45;2.47;;;10.40;99.90;;;;;;5092753;28;20060;-48
2022/10/03 00:29:04;;;;;;;12.35;2.22;;;10.20;99.90;;;;;;5093266;28;20502;-47
2022/10/03 00:31:50;;;;;;;8.35;1.90;;;10.30;99.90;;;;;;5093479;28;20119;-46
2022/10/03 00:34:22;;;;;;;11.30;1.88;;;10.30;99.90;;;;;;5093318;28;20093;-46
2022/10/03 00:37:19;;;;;;;13.45;1.80;;;10.10;99.90;;;;;;5093306;28;20403;-47
2022/10/03 00:40:28;;;;;;;10.75;2.40;;;10.00;99.90;;;;;;5090992;28;20055;-44
2022/10/03 00:43:00;;;;;;;15.50;1.80;;;10.10;99.90;;;;;;5091882;28;20109;-48
2022/10/03 00:45:48;;;;;;;8.80;2.10;;;9.90;99.90;;;;;;5092954;28;20043;-47
2022/10/03 00:48:51;;;;;;;11.98;2.40;;;10.00;99.90;;;;;;5092889;28;20487;-49
2022/10/03 00:51:32;;;;;;;12.30;2.22;;;10.10;99.90;;;;;;5090307;28;20028;-48
2022/10/03 00:54:25;;;;;;;10.27;1.70;;;10.00;99.90;;;;;;5091049;28;20497;-46
2022/10/03 00:57:09;;;;;;;13.27;2.20;;;9.90;99.90;;;;;;5092180;28;20040;-47
2022/10/03 01:00:00;;;;;;;9.90;2.10;;;9.90;99.90;;;;;;5093010;28;20387;-47
2022/10/03 01:02:45;;;;;;;11.43;2.30;;;9.80;99.90;;;;;;5092129;28;20727;-45
2022/10/03 01:05:41;;;;;;;11.18;2.28;;;9.80;99.90;;;;;;5092642;28;20203;-45
2022/10/03 01:08:18;;;;;;;13.00;2.50;;;10.10;99.90;;;;;;5092723;28;20032;-51
2022/10/03 01:10:47;;;;;;;11.02;1.80;;;9.70;99.90;;;;;;5092832;28;20032;-46
2022/10/03 01:13:48;;;;;;;11.05;1.95;;;9.80;99.90;;;;;;5092248;28;20037;-45
2022/10/03 01:16:41;;;;;;;11.18;1.60;;;9.70;99.90;;;;;;5091263;28;20443;-43
2022/10/03 01:19:25;;;;;;;9.38;1.75;;;9.80;99.90;;;;;;5092695;28;20399;-45
2022/10/03 01:22:23;;;;;;;10.70;1.50;;;9.80;99.90;;;;;;5092375;28;20421;-45
2022/10/03 01:25:06;;;;;;;10.45;1.70;;;9.80;99.90;;;;;;5091920;28;20102;-43
2022/10/03 01:31:10;;;;;;;9.85;3.13;;;9.70;99.90;;;;;;5044011;28;20100;-45
2022/10/03 01:34:14;;;;;;;9.27;1.60;;;9.90;99.90;;;;;;5092004;28;20048;-44
2022/10/03 01:37:12;;;;;;;8.75;1.48;;;9.70;99.90;;;;;;5060333;28;20052;-45
2022/10/03 01:40:03;;;;;;;8.55;1.50;;;9.60;99.90;;;;;;5091380;28;20066;-43
2022/10/03 01:42:43;;;;;;;4.82;1.05;;;9.80;99.90;;;;;;5090879;28;20487;-45
2022/10/03 01:45:41;;;;;;;9.80;1.58;;;9.50;99.90;;;;;;5091964;28;20475;-48
2022/10/03 01:48:17;;;;;;;7.13;1.10;;;9.50;99.90;;;;;;5091349;28;20078;-45
2022/10/03 01:50:58;;;;;;;4.97;1.10;;;9.70;99.90;;;;;;5090789;28;20036;-43
2022/10/03 01:53:42;;;;;;;4.35;0.90;;;9.70;99.90;;;;;;5091515;28;20043;-45
2022/10/03 01:56:11;;;;;;;8.45;1.25;;;9.70;99.90;;;;;;5091526;28;20051;-46
2022/10/03 01:58:46;;;;;;;5.05;1.15;;;9.50;99.90;;;;;;5091976;28;20032;-43
2022/10/03 02:01:42;;;;;;;4.22;1.10;;;9.50;99.90;;;;;;5091708;28;20044;-45
2022/10/03 02:04:13;;;;;;;6.47;1.20;;;9.60;99.90;;;;;;5082701;28;20048;-43
2022/10/03 02:06:51;;;;;;;8.73;1.30;;;9.40;99.90;;;;;;5091281;28;20040;-46
2022/10/03 02:09:40;;;;;;;7.35;1.60;;;9.50;99.90;;;;;;5090465;28;20040;-44
2022/10/03 02:12:13;;;;;;;12.52;1.90;;;9.50;99.90;;;;;;5090402;28;20364;-47
2022/10/03 02:15:09;;;;;;;12.07;2.00;;;9.60;99.90;;;;;;5091347;28;20494;-43
2022/10/03 02:17:53;;;;;;;8.23;1.60;;;9.50;99.90;;;;;;5091078;28;20031;-46
2022/10/03 02:20:32;;;;;;;6.10;1.33;;;9.60;99.90;;;;;;5091468;28;20051;-48
2022/10/03 02:22:58;;;;;;;6.47;1.73;;;9.20;99.90;;;;;;5089136;28;20047;-46
2022/10/03 02:25:42;;;;;;;7.47;1.58;;;9.20;99.90;;;;;;5089018;28;20044;-46
2022/10/03 02:28:37;;;;;;;6.40;1.60;;;9.30;99.90;;;;;;5088948;28;20117;-48
2022/10/03 02:31:24;;;;;;;7.55;2.00;;;9.20;99.90;;;;;;5091328;28;20040;-45
2022/10/03 02:34:18;;;;;;;7.07;1.60;;;9.30;99.90;;;;;;5091068;28;20071;-45
2022/10/03 02:36:59;;;;;;;5.13;1.25;;;9.40;99.90;;;;;;5090079;28;20086;-43
2022/10/03 02:39:58;;;;;;;3.40;1.10;;;9.00;99.90;;;;;;5090949;28;20044;-44
2022/10/03 02:42:46;;;;;;;6.30;1.10;;;9.30;99.90;;;;;;5090844;28;20048;-47
2022/10/03 02:45:30;;;;;;;18.50;2.03;;;9.10;99.90;;;;;;5090172;28;20112;-45
2022/10/03 02:48:08;;;;;;;8.43;1.67;;;9.10;99.90;;;;;;5091151;28;20036;-43
2022/10/03 02:50:53;;;;;;;6.07;1.80;;;9.10;99.90;;;;;;5089844;28;20028;-43
2022/10/03 02:53:33;;;;;;;7.43;1.73;;;9.20;99.90;;;;;;5091036;28;20123;-44
2022/10/03 02:56:47;;;;;;;7.18;1.45;;;9.10;99.90;;;;;;5090635;28;20035;-45
2022/10/03 02:59:33;;;;;;;6.65;1.42;;;9.00;99.90;;;;;;5090198;28;20120;-43
2022/10/03 03:02:11;;;;;;;6.22;1.42;;;8.90;99.90;;;;;;5090919;28;20132;-42
2022/10/03 03:04:55;;;;;;;4.85;1.50;;;8.90;99.90;;;;;;5088642;28;20036;-44
2022/10/03 03:07:42;;;;;;;7.28;1.50;;;8.80;99.90;;;;;;5088359;28;20036;-48
2022/10/03 03:10:29;;;;;;;7.30;1.50;;;9.00;99.90;;;;;;5092758;28;20493;-44
2022/10/03 03:13:22;;;;;;;4.93;1.45;;;8.80;99.90;;;;;;5094912;28;20032;-44
2022/10/03 03:16:00;;;;;;;6.18;1.10;;;8.80;99.90;;;;;;5094769;28;20040;-45
2022/10/03 03:19:09;;;;;;;6.70;1.17;;;8.80;99.90;;;;;;5094408;28;20040;-43
2022/10/03 03:22:09;;;;;;;6.25;1.27;;;8.90;99.90;;;;;;5090251;28;20052;-42
2022/10/03 03:25:00;;;;;;;7.68;1.60;;;8.70;99.90;;;;;;5094397;28;20043;-45
2022/10/03 03:27:31;;;;;;;5.78;1.67;;;8.80;99.90;;;;;;5094207;28;20052;-45
2022/10/03 03:30:04;;;;;;;5.82;1.30;;;8.70;99.90;;;;;;5094252;28;20044;-45
2022/10/03 03:33:20;;;;;;;6.73;1.67;;;8.70;99.90;;;;;;5094270;28;20046;-46
2022/10/03 03:35:59;;;;;;;6.95;1.40;;;8.80;99.90;;;;;;5050549;28;20102;-44
2022/10/03 03:38:30;;;;;;;4.65;1.30;;;8.70;99.90;;;;;;5089904;28;20475;-46
2022/10/03 03:41:08;;;;;;;3.58;1.20;;;8.80;99.90;;;;;;5094469;28;20554;-46
2022/10/03 03:43:48;;;;;;;6.15;1.50;;;8.60;99.90;;;;;;5093667;28;20475;-46
2022/10/03 03:47:07;;;;;;;7.10;1.70;;;8.90;99.90;;;;;;5092955;28;20036;-43
2022/10/03 03:50:00;;;;;;;45.28;2.67;;;8.60;99.90;;;;;;5085668;28;20048;-45
2022/10/03 03:53:13;;;;;;;13.57;1.35;;;8.90;99.90;;;;;;5090369;28;20032;-42
2022/10/03 03:56:16;;;;;;;13.10;0.90;;;8.80;99.90;;;;;;5009953;28;20273;-45
2022/10/03 03:59:08;;;;;;;4.80;1.30;;;8.70;99.90;;;;;;5005563;28;20116;-43
2022/10/03 04:02:12;;;;;;;4.45;1.10;;;8.70;99.90;;;;;;5079475;28;20106;-41
2022/10/03 04:04:55;;;;;;;4.05;0.75;;;8.60;99.90;;;;;;5093978;28;20040;-45
2022/10/03 04:07:41;;;;;;;2.22;0.80;;;8.50;99.90;;;;;;5092973;28;20028;-47
2022/10/03 04:10:25;;;;;;;2.92;0.90;;;8.50;99.90;;;;;;5092288;28;20080;-44
2022/10/03 04:13:17;;;;;;;3.00;1.00;;;8.40;99.90;;;;;;5093910;28;20060;-43
2022/10/03 04:15:49;;;;;;;7.68;1.27;;;8.60;99.90;;;;;;5092815;28;20051;-44
2022/10/03 04:18:58;;;;;;;4.88;1.30;;;8.60;99.90;;;;;;5093663;28;20044;-45
2022/10/03 04:21:46;;;;;;;3.75;1.20;;;8.40;99.90;;;;;;5091956;28;20044;-46
2022/10/03 04:24:36;;;;;;;4.78;1.40;;;8.60;99.90;;;;;;5092257;28;20044;-46
2022/10/03 04:27:18;;;;;;;3.78;1.27;;;8.30;99.90;;;;;;5091434;28;20135;-48
2022/10/03 04:30:06;;;;;;;7.32;1.45;;;8.50;99.90;;;;;;5092208;28;20090;-47
2022/10/03 04:32:55;;;;;;;5.13;1.33;;;8.50;99.90;;;;;;5093313;28;20483;-45
2022/10/03 04:35:55;;;;;;;7.03;1.70;;;8.40;99.90;;;;;;5093446;28;20042;-44
2022/10/03 04:38:59;;;;;;;5.57;1.30;;;8.40;99.90;;;;;;5083637;28;20086;-45
2022/10/03 04:41:31;;;;;;;7.82;1.80;;;8.20;99.90;;;;;;5047057;28;20120;-42
2022/10/03 04:44:42;;;;;;;5.85;1.70;;;8.40;99.90;;;;;;5085000;28;20093;-43
2022/10/03 04:47:14;;;;;;;7.95;1.45;;;8.30;99.90;;;;;;5028552;28;20139;-41
2022/10/03 04:49:45;;;;;;;11.65;1.88;;;8.30;99.90;;;;;;5092911;28;20039;-44
2022/10/03 04:52:21;;;;;;;12.52;1.88;;;8.20;99.90;;;;;;5093132;28;20043;-45
2022/10/03 04:55:18;;;;;;;15.30;2.05;;;8.20;99.90;;;;;;5093243;28;20052;-44
2022/10/03 04:58:25;;;;;;;17.95;2.08;;;8.10;99.90;;;;;;5074820;28;20452;-46
2022/10/03 05:01:25;;;;;;;5.15;1.27;;;8.10;99.90;;;;;;5092634;28;20039;-44
2022/10/03 05:04:33;;;;;;;9.35;1.30;;;8.30;99.90;;;;;;5090708;28;20097;-45
2022/10/03 05:07:17;;;;;;;16.15;1.60;;;8.30;99.90;;;;;;5092650;28;20133;-44
2022/10/03 05:10:30;;;;;;;7.53;1.23;;;8.30;99.90;;;;;;5092433;28;20043;-44
2022/10/03 05:13:11;;;;;;;5.80;1.10;;;8.10;99.90;;;;;;5043913;28;20040;-42
2022/10/03 05:16:00;;;;;;;14.75;2.00;;;8.00;99.90;;;;;;5092663;28;20067;-44
2022/10/03 05:18:34;;;;;;;14.48;1.70;;;8.00;99.90;;;;;;5092355;28;20145;-43
2022/10/03 05:21:32;;;;;;;21.45;1.75;;;7.90;99.90;;;;;;5090893;28;20047;-44
2022/10/03 05:24:09;;;;;;;57.00;3.00;;;8.10;99.90;;;;;;5021203;28;20055;-43
2022/10/03 05:27:00;;;;;;;3.83;1.10;;;8.10;99.90;;;;;;5091606;28;20048;-45
2022/10/03 05:29:32;;;;;;;16.30;1.73;;;8.00;99.90;;;;;;5092099;28;20116;-47
2022/10/03 05:32:23;;;;;;;3.88;1.80;;;8.00;99.90;;;;;;5090792;28;20040;-45
2022/10/03 05:35:27;;;;;;;3.30;1.48;;;7.70;99.90;;;;;;5063124;28;20048;-44
2022/10/03 05:38:11;;;;;;;4.25;1.20;;;8.10;99.90;;;;;;5090968;28;20036;-47
2022/10/03 05:40:42;;;;;;;6.65;1.65;;;8.00;99.90;;;;;;5092259;28;20559;-45
2022/10/03 05:43:39;;;;;;;6.38;1.70;;;7.70;99.90;;;;;;5091277;28;20059;-42
2022/10/03 05:46:28;;;;;;;13.75;2.60;;;7.90;99.90;;;;;;5092019;28;20084;-45
2022/10/03 05:49:39;;;;;;;39.28;2.90;;;8.00;99.90;;;;;;5081940;28;20036;-43
2022/10/03 05:52:41;;;;;;;5.50;1.80;;;8.00;99.90;;;;;;5065995;28;20487;-42
2022/10/03 05:55:25;;;;;;;6.75;1.58;;;7.70;99.90;;;;;;5091503;28;20036;-48
2022/10/03 05:58:06;;;;;;;7.53;1.80;;;7.80;99.90;;;;;;5090212;28;20056;-47
2022/10/03 06:00:50;;;;;;;5.47;1.63;;;8.00;99.90;;;;;;5090090;28;20052;-43
2022/10/03 06:03:22;;;;;;;4.85;1.85;;;7.70;99.90;;;;;;5091680;28;20399;-45
2022/10/03 06:06:02;;;;;;;9.23;2.00;;;7.80;99.90;;;;;;5072560;28;20105;-45
2022/10/03 06:08:40;;;;;;;8.82;2.45;;;7.90;99.90;;;;;;5089963;28;20040;-43
2022/10/03 06:11:37;;;;;;;11.55;2.25;;;8.00;99.90;;;;;;5091712;28;20036;-44
2022/10/03 06:14:51;;;;;;;11.13;2.20;;;7.90;99.90;;;;;;5091470;28;20115;-44
2022/10/03 06:17:16;;;;;;;9.02;1.65;;;7.80;99.90;;;;;;5035540;28;20099;-43
2022/10/03 06:19:48;;;;;;;6.45;1.80;;;8.00;99.90;;;;;;5091040;28;20478;-45
2022/10/03 06:22:30;;;;;;;7.05;1.98;;;7.80;99.90;;;;;;5090139;28;20036;-45
2022/10/03 06:25:38;;;;;;;6.80;2.00;;;7.80;99.90;;;;;;5090058;28;20040;-43
2022/10/03 06:28:37;;;;;;;7.25;2.00;;;8.00;99.90;;;;;;5091247;28;20395;-47
2022/10/03 06:31:25;;;;;;;3.22;1.40;;;8.10;99.90;;;;;;5091315;28;20040;-43
2022/10/03 06:34:03;;;;;;;5.35;1.60;;;8.00;99.90;;;;;;5083026;28;20036;-42
2022/10/03 06:36:56;;;;;;;6.15;2.20;;;8.00;99.90;;;;;;5081349;28;20092;-47
2022/10/03 06:39:22;;;;;;;5.47;1.80;;;8.20;99.90;;;;;;5082245;28;20062;-46
2022/10/03 06:42:03;;;;;;;4.60;1.80;;;8.20;99.90;;;;;;5081995;28;20036;-44
2022/10/03 06:44:47;;;;;;;5.15;2.17;;;8.00;99.90;;;;;;5063135;28;20654;-45
2022/10/03 06:47:30;;;;;;;8.00;2.22;;;8.20;99.90;;;;;;5078523;28;20043;-44
2022/10/03 06:50:24;;;;;;;5.50;2.13;;;8.40;99.90;;;;;;5077886;28;20198;-45
2022/10/03 06:53:09;;;;;;;6.88;2.58;;;8.10;99.90;;;;;;5071254;28;20127;-47
2022/10/03 06:56:07;;;;;;;5.72;2.63;;;8.50;99.90;;;;;;5065904;28;20036;-44
2022/10/03 06:58:45;;;;;;;5.78;2.38;;;8.20;99.90;;;;;;5077171;28;20067;-44
2022/10/03 07:01:11;;;;;;;7.25;2.60;;;8.60;99.90;;;;;;5079073;28;20038;-44
2022/10/03 07:04:04;;;;;;;7.85;2.65;;;8.40;99.90;;;;;;5075006;28;20036;-44
2022/10/03 07:07:06;;;;;;;7.00;2.95;;;8.70;99.90;;;;;;5078343;28;20170;-46
2022/10/03 07:09:52;;;;;;;9.18;2.70;;;8.50;99.90;;;;;;5079978;28;20059;-44
2022/10/03 07:12:52;;;;;;;10.23;3.35;;;8.80;99.90;;;;;;5080274;28;20048;-44
2022/10/03 07:15:50;;;;;;;10.75;3.35;;;8.60;99.90;;;;;;5077962;28;20044;-43
2022/10/03 07:19:00;;;;;;;5.80;3.10;;;8.60;99.90;;;;;;5078965;28;20036;-45
2022/10/03 07:21:40;;;;;;;10.20;3.17;;;8.70;99.90;;;;;;5076950;28;20034;-45
2022/10/03 07:24:40;;;;;;;22.80;4.15;;;9.00;99.90;;;;;;5079037;28;20039;-43
2022/10/03 07:27:21;;;;;;;12.82;4.18;;;9.10;99.90;;;;;;5079676;28;20098;-44
2022/10/03 07:30:14;;;;;;;9.82;4.38;;;9.20;99.90;;;;;;5079259;28;20064;-48
2022/10/03 07:33:13;;;;;;;14.55;4.68;;;9.20;99.90;;;;;;5078276;28;20052;-48
2022/10/03 07:39:00;;;;;;;10.88;4.95;;;9.30;99.90;;;;;;5079037;28;20040;-42
2022/10/03 07:41:37;;;;;;;16.55;5.30;;;9.70;99.90;;;;;;5064267;28;20051;-42
2022/10/03 07:44:28;;;;;;;13.73;4.47;;;9.80;99.90;;;;;;5077481;28;20036;-44
2022/10/03 07:47:24;;;;;;;14.68;5.18;;;10.20;99.90;;;;;;5078903;28;20036;-44
2022/10/03 07:49:59;;;;;;;13.95;4.82;;;10.00;99.90;;;;;;5080668;28;20506;-46
2022/10/03 07:52:38;;;;;;;;;;;10.10;99.90;;;;;;5078074;28;20040;-44
2022/10/03 07:55:50;;;;;;;19.35;5.22;;;10.50;99.90;;;;;;5077925;28;19912;-46
2022/10/03 07:58:53;;;;;;;12.75;5.35;;;10.50;99.90;;;;;;5028834;28;20534;-44
2022/10/03 08:01:30;;;;;;;18.20;4.95;;;10.70;99.90;;;;;;5079323;28;20128;-45
2022/10/03 08:04:17;;;;;;;15.68;4.85;;;10.90;99.90;;;;;;5079398;28;20378;-44
2022/10/03 08:07:04;;;;;;;17.02;4.60;;;11.30;99.90;;;;;;5084238;28;20418;-46
2022/10/03 08:09:30;;;;;;;18.77;4.30;;;11.30;99.90;;;;;;5086093;28;20040;-46
2022/10/03 08:12:41;;;;;;;18.52;4.05;;;11.20;99.90;;;;;;5079442;28;20081;-46
2022/10/03 08:15:28;;;;;;;15.02;4.10;;;11.30;99.90;;;;;;5079197;28;20040;-47
2022/10/03 08:18:47;;;;;;;18.33;4.38;;;11.50;99.90;;;;;;5081610;28;20498;-47
2022/10/03 08:21:25;;;;;;;10.60;2.42;;;11.70;99.90;;;;;;5081511;28;20028;-44
2022/10/03 08:24:16;;;;;;;15.38;3.28;;;12.20;99.90;;;;;;5080407;28;20042;-44
2022/10/03 08:26:51;;;;;;;16.48;3.25;;;12.10;99.90;;;;;;5081792;28;20056;-47
2022/10/03 08:29:55;;;;;;;12.93;3.22;;;12.30;99.90;;;;;;5080171;28;20392;-44
2022/10/03 08:32:43;;;;;;;16.02;3.40;;;12.60;99.90;;;;;;5051500;28;20100;-46
2022/10/03 08:35:21;;;;;;;12.32;2.95;;;12.70;99.90;;;;;;5084485;28;20032;-47
2022/10/03 08:37:58;;;;;;;12.23;2.97;;;12.50;99.90;;;;;;5082778;28;20111;-47
2022/10/03 08:40:46;;;;;;;12.57;2.38;;;12.70;99.90;;;;;;5083084;28;20032;-46
2022/10/03 08:43:50;;;;;;;10.48;2.50;;;13.20;99.90;;;;;;5082863;28;20544;-46
2022/10/03 08:47:10;;;;;;;14.40;2.67;;;13.10;99.90;;;;;;5027843;28;20100;-49
2022/10/03 08:50:00;;;;;;;11.30;1.80;;;13.40;99.90;;;;;;5032178;28;20037;-46
2022/10/03 08:52:37;;;;;;;11.00;2.30;;;13.50;99.90;;;;;;5083182;28;20522;-45
2022/10/03 08:55:44;;;;;;;19.13;2.28;;;14.20;99.90;;;;;;5083746;28;20036;-47
2022/10/03 08:58:12;;;;;;;9.30;1.73;;;13.80;99.90;;;;;;5082949;28;20491;-49
2022/10/03 09:01:16;;;;;;;8.88;1.48;;;14.00;99.90;;;;;;5082371;28;20089;-46
2022/10/03 09:03:56;;;;;;;17.60;2.60;;;14.00;99.90;;;;;;5080532;28;21237;-49
2022/10/03 09:06:55;;;;;;;12.65;2.08;;;14.00;99.90;;;;;;5078889;28;20051;-48
2022/10/03 09:09:59;;;;;;;10.02;1.75;;;14.20;99.90;;;;;;5080635;28;20044;-47
2022/10/03 09:13:08;;;;;;;13.30;1.70;;;14.40;99.90;;;;;;5076350;28;20368;-45
2022/10/03 09:15:40;;;;;;;7.72;1.70;;;14.40;99.90;;;;;;5081672;28;20134;-49
2022/10/03 09:18:20;;;;;;;12.05;1.85;;;14.40;99.90;;;;;;5079884;28;20036;-50
2022/10/03 09:20:52;;;;;;;10.35;1.60;;;14.50;99.90;;;;;;5082347;28;20047;-48
2022/10/03 09:23:55;;;;;;;15.50;1.80;;;14.80;99.90;;;;;;5081734;28;20028;-44
2022/10/03 09:26:29;;;;;;;9.82;1.85;;;14.80;99.90;;;;;;5079099;28;20139;-46
2022/10/03 09:29:27;;;;;;;9.23;2.05;;;15.00;99.90;;;;;;5076074;28;20048;-46
2022/10/03 09:32:15;;;;;;;10.80;1.85;;;15.00;99.90;;;;;;5082749;28;20028;-48
2022/10/03 09:35:02;;;;;;;8.02;1.73;;;15.10;99.90;;;;;;5080385;28;20032;-44
2022/10/03 09:37:31;;;;;;;9.68;1.75;;;15.30;99.90;;;;;;5078438;28;20046;-47
2022/10/03 09:40:20;;;;;;;9.48;1.65;;;15.40;99.90;;;;;;5081608;28;20059;-48
2022/10/03 09:43:02;;;;;;;10.02;1.80;;;15.30;99.90;;;;;;5078735;28;20031;-48
2022/10/03 09:45:45;;;;;;;7.85;1.48;;;15.40;99.90;;;;;;5079880;28;20036;-47
2022/10/03 09:48:20;;;;;;;11.63;1.77;;;15.40;99.90;;;;;;5082076;28;20028;-47
2022/10/03 09:51:17;;;;;;;7.07;1.30;;;15.50;99.90;;;;;;5081809;28;20036;-44
2022/10/03 09:53:51;;;;;;;10.68;1.95;;;15.40;99.90;;;;;;5081913;28;20025;-46
2022/10/03 09:56:35;;;;;;;;;;;15.50;99.90;;;;;;5082750;28;20039;-49
2022/10/03 09:59:38;;;;;;;11.05;1.88;;;15.50;99.90;;;;;;5076863;28;19920;-46
2022/10/03 10:02:22;;;;;;;9.77;1.95;;;15.80;99.90;;;;;;5076761;28;20466;-44
2022/10/03 10:05:13;;;;;;;9.38;1.50;;;15.80;99.90;;;;;;5077738;28;20129;-45
2022/10/03 10:07:59;;;;;;;7.88;1.48;;;15.90;99.90;;;;;;5078094;28;20091;-46
2022/10/03 10:10:54;;;;;;;9.38;1.80;;;15.90;99.90;;;;;;5079219;28;20039;-44
2022/10/03 10:13:51;;;;;;;7.53;1.50;;;16.10;99.90;;;;;;5064621;28;20127;-46
2022/10/03 10:16:50;;;;;;;12.98;1.73;;;15.90;99.90;;;;;;5080233;28;20040;-45
2022/10/03 10:19:53;;;;;;;9.88;1.23;;;16.10;99.90;;;;;;5077822;28;20078;-45
2022/10/03 10:22:50;;;;;;;7.82;1.58;;;16.10;99.90;;;;;;5079236;28;20050;-45
2022/10/03 10:25:28;;;;;;;7.35;1.67;;;16.20;99.90;;;;;;5080910;28;20032;-45
2022/10/03 10:28:00;;;;;;;7.55;1.30;;;16.20;99.90;;;;;;5080215;28;20051;-48
2022/10/03 10:31:19;;;;;;;9.45;1.77;;;16.40;99.90;;;;;;5081210;28;20119;-47
2022/10/03 10:34:31;;;;;;;7.18;1.27;;;16.40;99.90;;;;;;5077088;28;20080;-48
2022/10/03 10:37:15;;;;;;;9.07;1.70;;;16.40;99.90;;;;;;5080455;28;20192;-46
2022/10/03 10:40:11;;;;;;;8.30;1.67;;;16.40;99.90;;;;;;5080644;28;20098;-45
2022/10/03 10:42:55;;;;;;;10.02;1.50;;;16.50;99.90;;;;;;5080749;28;20028;-46
2022/10/03 10:46:03;;;;;;;7.53;1.50;;;16.60;99.90;;;;;;5080623;28;20028;-47
2022/10/03 10:49:14;;;;;;;7.57;1.48;;;16.70;99.90;;;;;;5073080;28;20048;-45
2022/10/03 10:51:52;;;;;;;8.80;1.63;;;16.80;99.90;;;;;;5038917;28;20135;-46
2022/10/03 10:54:45;;;;;;;6.20;1.70;;;16.90;99.90;;;;;;5076712;28;20028;-47
2022/10/03 10:57:32;;;;;;;7.13;1.35;;;17.00;99.90;;;;;;5073083;28;20059;-47
2022/10/03 11:00:01;;;;;;;6.65;1.42;;;17.10;99.90;;;;;;5080687;28;20032;-47
2022/10/03 11:02:57;;;;;;;5.60;1.42;;;17.20;99.90;;;;;;5079885;28;20412;-49
2022/10/03 11:05:57;;;;;;;7.70;1.35;;;17.30;99.90;;;;;;5075962;28;20426;-50
2022/10/03 11:08:44;;;;;;;5.53;1.30;;;17.30;99.90;;;;;;5079664;28;20044;-44
2022/10/03 11:11:40;;;;;;;7.05;1.23;;;17.30;99.90;;;;;;5079174;28;20101;-47
2022/10/03 11:14:09;;;;;;;6.13;0.90;;;17.40;99.90;;;;;;5080847;28;20039;-49
2022/10/03 11:17:04;;;;;;;6.35;1.05;;;17.50;99.90;;;;;;5080499;28;20920;-49
2022/10/03 11:20:14;;;;;;;7.03;0.88;;;17.70;99.90;;;;;;5078459;28;20059;-48
2022/10/03 11:23:23;;;;;;;5.10;1.00;;;17.60;99.90;;;;;;5049996;28;20093;-47
2022/10/03 11:26:27;;;;;;;6.28;1.20;;;17.70;99.90;;;;;;5077141;28;20094;-50
2022/10/03 11:29:30;;;;;;;6.97;1.17;;;17.80;99.90;;;;;;5078744;28;20051;-48
2022/10/03 11:32:33;;;;;;;9.90;1.63;;;17.80;99.90;;;;;;5086040;28;20059;-50
2022/10/03 11:35:20;;;;;;;7.30;1.33;;;17.80;99.90;;;;;;5093435;28;20123;-47
2022/10/03 11:38:07;;;;;;;6.05;1.17;;;17.90;99.90;;;;;;5093898;28;20036;-47
2022/10/03 11:41:06;;;;;;;7.32;1.05;;;18.10;99.90;;;;;;5090588;28;20475;-45
2022/10/03 11:43:50;;;;;;;4.72;1.05;;;18.20;99.90;;;;;;5081531;28;20187;-46
2022/10/03 11:46:54;;;;;;;5.63;1.00;;;18.20;99.90;;;;;;5093756;28;20439;-50
2022/10/03 11:49:57;;;;;;;6.78;1.00;;;18.30;99.90;;;;;;5093788;28;20036;-45
2022/10/03 11:52:32;;;;;;;6.30;1.00;;;18.50;99.90;;;;;;5084449;28;20097;-45
2022/10/03 11:55:24;;;;;;;7.57;1.02;;;18.50;99.90;;;;;;5093983;28;20036;-46
2022/10/03 11:58:14;;;;;;;5.88;1.05;;;18.40;99.90;;;;;;5094438;28;20128;-47
2022/10/03 12:00:44;;;;;;;5.45;0.90;;;18.60;99.90;;;;;;5094161;28;20112;-47
2022/10/03 12:03:22;;;;;;;6.13;0.93;;;18.60;99.90;;;;;;5094033;28;20497;-45
2022/10/03 12:09:28;;;;;;;8.02;1.10;;;18.80;99.90;;;;;;5094066;28;20044;-43
2022/10/03 12:12:12;;;;;;;5.00;0.77;;;18.90;99.90;;;;;;5092404;28;20136;-45
2022/10/03 12:14:45;;;;;;;4.53;0.90;;;19.00;99.90;;;;;;5093948;28;20082;-44
2022/10/03 12:17:23;;;;;;;7.20;1.38;;;19.10;99.90;;;;;;5093856;28;20107;-47
2022/10/03 12:20:01;;;;;;;5.35;1.40;;;19.30;99.90;;;;;;5093550;28;20052;-45
2022/10/03 12:22:52;;;;;;;4.75;1.00;;;19.40;99.90;;;;;;5093711;28;20128;-45
2022/10/03 12:25:24;;;;;;;5.70;1.17;;;19.30;99.90;;;;;;5093651;28;20503;-45
2022/10/03 12:28:00;;;;;;;6.10;0.82;;;19.40;99.90;;;;;;5093258;28;20063;-44
2022/10/03 12:30:33;;;;;;;3.97;0.77;;;19.50;99.90;;;;;;5093238;28;20048;-47
2022/10/03 12:33:18;;;;;;;6.68;0.90;;;19.60;99.90;;;;;;5093652;28;20036;-46
2022/10/03 12:35:57;;;;;;;6.07;1.17;;;19.70;99.90;;;;;;5093432;28;20484;-44
2022/10/03 12:38:55;;;;;;;6.60;1.02;;;19.90;99.90;;;;;;5093602;28;20044;-46
2022/10/03 12:41:24;;;;;;;6.63;1.23;;;19.90;99.90;;;;;;5092978;28;20050;-44
2022/10/03 12:44:37;;;;;;;7.22;0.93;;;20.00;99.90;;;;;;5092174;28;20044;-44
2022/10/03 12:47:27;;;;;;;6.80;1.13;;;19.90;99.90;;;;;;5081995;28;20040;-47
2022/10/03 12:50:14;;;;;;;7.15;0.80;;;19.80;99.90;;;;;;5092513;28;20047;-47
2022/10/03 12:53:03;;;;;;;6.35;0.98;;;19.70;99.90;;;;;;5093253;28;20071;-44
2022/10/03 12:55:48;;;;;;;7.38;1.25;;;19.60;99.90;;;;;;5092330;28;20036;-43
2022/10/03 12:58:23;;;;;;;5.80;0.95;;;19.40;99.90;;;;;;5092195;28;20036;-46
2022/10/03 13:01:20;;;;;;;7.50;1.33;;;19.20;99.90;;;;;;5092942;28;20101;-45
2022/10/03 13:03:54;;;;;;;4.93;1.00;;;19.10;99.90;;;;;;5091993;28;20433;-44
2022/10/03 13:06:38;;;;;;;;;;;19.00;99.90;;;;;;5093050;28;20124;-47
2022/10/03 13:09:32;;;;;;;4.78;0.80;;;18.80;99.90;;;;;;5092801;28;20012;-47
2022/10/03 13:12:23;;;;;;;4.03;0.70;;;18.80;99.90;;;;;;5091712;28;20123;-46
2022/10/03 13:15:28;;;;;;;8.40;1.20;;;18.80;99.90;;;;;;5092874;28;20036;-45
2022/10/03 13:18:12;;;;;;;4.00;0.95;;;18.90;99.90;;;;;;5092694;28;20040;-50
2022/10/03 13:20:42;;;;;;;7.43;1.20;;;18.90;99.90;;;;;;5091821;28;20047;-45
2022/10/03 13:23:29;;;;;;;5.07;1.20;;;19.00;99.90;;;;;;5092442;28;20040;-46
2022/10/03 13:26:18;;;;;;;6.15;1.00;;;19.10;99.90;;;;;;5090515;28;20087;-46
2022/10/03 13:29:11;;;;;;;6.75;1.08;;;19.20;99.90;;;;;;5091998;28;20040;-46
2022/10/03 13:31:54;;;;;;;4.72;0.90;;;19.20;99.90;;;;;;5092201;28;20036;-44
2022/10/03 13:34:25;;;;;;;5.13;1.23;;;19.20;99.90;;;;;;5091426;28;20036;-46
2022/10/03 13:37:04;;;;;;;6.88;1.13;;;19.10;99.90;;;;;;5092150;28;20043;-47
2022/10/03 13:39:52;;;;;;;6.32;1.10;;;19.10;99.90;;;;;;5092219;28;20455;-46
2022/10/03 13:42:33;;;;;;;5.10;1.10;;;19.10;99.90;;;;;;5092209;28;20053;-47
2022/10/03 13:45:19;;;;;;;8.13;1.55;;;19.10;99.90;;;;;;5090908;28;20083;-45
2022/10/03 13:48:25;;;;;;;5.82;1.00;;;19.20;99.90;;;;;;5090438;28;20072;-46
2022/10/03 13:51:01;;;;;;;5.38;0.93;;;19.30;99.90;;;;;;5029309;28;20401;-45
2022/10/03 13:54:00;;;;;;;5.28;0.90;;;19.40;99.90;;;;;;5083970;28;20061;-44
2022/10/03 13:56:51;;;;;;;4.65;0.88;;;20.10;99.90;;;;;;5090908;28;20128;-49
2022/10/03 13:59:48;;;;;;;5.43;0.93;;;19.50;99.90;;;;;;5091599;28;20040;-47
2022/10/03 14:02:16;;;;;;;6.18;1.00;;;19.60;99.90;;;;;;5092079;28;20044;-47
2022/10/03 14:05:03;;;;;;;6.47;1.08;;;19.60;99.90;;;;;;5090356;28;20491;-48
2022/10/03 14:07:58;;;;;;;6.32;0.90;;;19.60;99.90;;;;;;5091448;28;20051;-48
2022/10/03 14:10:33;;;;;;;5.57;1.10;;;19.50;99.90;;;;;;5091437;28;20024;-49
2022/10/03 14:13:18;;;;;;;4.93;0.80;;;19.50;99.90;;;;;;5091669;28;20040;-44
2022/10/03 14:16:00;;;;;;;5.50;0.82;;;19.40;99.90;;;;;;5091685;28;20066;-45
2022/10/03 14:18:47;;;;;;;5.00;0.80;;;19.30;99.90;;;;;;5089607;28;20079;-49
2022/10/03 14:21:34;;;;;;;5.50;1.05;;;19.10;99.90;;;;;;5091590;28;20108;-45
2022/10/03 14:24:15;;;;;;;4.57;1.00;;;18.90;99.90;;;;;;5091049;28;20040;-45
2022/10/03 14:26:53;;;;;;;4.65;1.00;;;18.80;99.90;;;;;;5090219;28;20048;-46
2022/10/03 14:29:26;;;;;;;4.72;0.98;;;18.70;99.90;;;;;;5091421;28;20380;-47
2022/10/03 14:32:12;;;;;;;4.95;1.15;;;18.60;99.90;;;;;;5091265;28;20035;-47
2022/10/03 14:34:56;;;;;;;3.50;0.98;;;18.60;99.90;;;;;;5091326;28;20035;-44
2022/10/03 14:37:46;;;;;;;4.57;0.85;;;18.60;99.90;;;;;;5091020;28;20046;-47
2022/10/03 14:40:35;;;;;;;5.18;0.85;;;18.60;99.90;;;;;;5089847;28;20051;-45
2022/10/03 14:43:04;;;;;;;4.40;0.90;;;18.50;99.90;;;;;;5072592;28;20075;-45
2022/10/03 14:45:36;;;;;;;4.38;0.93;;;18.50;99.90;;;;;;5090986;28;20055;-46
2022/10/03 14:48:16;;;;;;;6.15;0.98;;;18.50;99.90;;;;;;5091294;28;20039;-47